Haines, AK

2:26 AM AKDT on March 26, 2017 (GMT -0800)
Letnikof Cove | | Change Station

Elev 230 ft 59.17 °N, 135.39 °W | Updated 3 seconds ago

Light Snow
Light Snow Mist
32.0 °F
Feels Like 32 °F
N
0.0
Wind Variable Wind from SSW
Gusts 0.0 mph

Today
High -- | Low -- °F
--% Chance of Precip.
Yesterday
High -- | Low -- °F
Precip. -- in
Pressure 29.79 in
Visibility 2.5 miles
Clouds Overcast 2200 ft
Windchill 32 °F
Dew Point 31 °F
Humidity 96%
Rainfall 0.00 in
Snow Depth Not available.
6:44 AM 7:31 PM
Waning Crescent, 4% visible
SPECI PAHN 261021Z AUTO 30008KT 2 1/2SM -SN BR OVC022 M01/M02 A2979 RMK AO2 P0000 T10061022 TSNO
Pressure 29.79 in
Visibility 2.5 miles
Clouds Overcast 2200 ft
Windchill 32 °F
Dew Point 31 °F
Humidity 96%
Rainfall 0.00 in
Snow Depth Not available.
6:44 AM 7:31 PM
Waning Crescent, 4% visible
SPECI PAHN 261021Z AUTO 30008KT 2 1/2SM -SN BR OVC022 M01/M02 A2979 RMK AO2 P0000 T10061022 TSNO

Get Severe Weather Alerts

Thanks for signing up!

Be on the lookout for a verification email in your inbox.

You'll start receiving the daily forecast at 8 AM.

×

10-Day Weather Forecast

Almanac

Astronomy

Mar. 26, 2017 Rise Set
Actual Time
Civil Twilight
Nautical Twilight
Astronomical Twilight
Moon
Length of Visible Light
Length of Day
Tomorrow will be .
, % of the Moon is Illuminated

Today's Extremes

State Highs State Lows

Community

WunderPhotos

Upload Photos

1,962,540 photos uploaded!

WunderBlog® & News

Nearby

Air Quality

  Air Quality AQ Index Pollutant
Not available.

Snow Depth

Station Depth Elevation

Earthquake Activity

City Distance Mag. Time & Date
Minimum magnitude displayed is 2.5.

Earthquake Activity

City Distance Mag. Time & Date
Minimum magnitude displayed is 2.5.

Coastal Water Temperatures

Place Temperature

Stations

Nearby Weather Stations

Station Location Temp. Windchill Dew Point Humidity Wind Precip. Elev Updated Type
                   

Watches & Warnings

There are currently no watches in effect.